Ivesdale, IL (61851)

11:11 AM CST on January 31, 2015 (GMT -0600)
Jones Family | Change Station
CLOSE
Current Station
Personal Weather Station
Location: Monticello, IL
Elevation: 745 ft
Nearby Weather Stations
Active Advisory: Winter Weather Advisory

Elev 745 ft 40.00 °N, 88.58 °W | Updated 35 seconds ago

Partly Cloudy
Partly Cloudy
36.9 °F
Feels Like 34 °F
N
4.0
Wind Variable Wind from SW
Gusts 6.0 mph

Today
High -- | Low -- °F
--% Chance of Precip.
Yesterday
High -- | Low -- °F
Precip. -- in
7:03 AM 5:11 PM
Waxing Gibbous, 90% visible
Pressure 30.32 in
Visibility 10.0 miles
Clouds Scattered Clouds 4000 ft
Windchill 34 °F
Dew Point 27 °F
Humidity 66%
Rainfall 0.00 in
Snow Depth Not available.
UV 3 out of 12
Pollen .10 out of 12
Air Quality Not available.
Flu Activity Not available.
METAR KCMI 311653Z 23014KT 10SM SCT040 02/M03 A3030 RMK AO2 SLP268 T00171033

More Conditions Fewer Conditions

Pressure 30.32 in
Visibility 10.0 miles
Clouds Scattered Clouds 4000 ft
Windchill 34 °F
Dew Point 27 °F
Humidity 66%
Rainfall 0.00 in
Snow Depth Not available.
UV 3 out of 12
Pollen .10 out of 12
Air Quality Not available.
Flu Activity Not available.
METAR KCMI 311653Z 23014KT 10SM SCT040 02/M03 A3030 RMK AO2 SLP268 T00171033

More Conditions Fewer Conditions

10-Day Weather Forecast

Almanac

Astronomy

Jan. 31, 2015 Rise Set
Actual Time
Civil Twilight
Nautical Twilight
Astronomical Twilight
Moon
Length of Visible Light
Length of Day
Tomorrow will be .
, % of the Moon is Illuminated

Today's Extremes

State Highs State Lows

Community

WunderPhotos

Upload Photos

1,792,122 photos uploaded!

WunderBlogs® & News

Nearby

Air Quality

  Air Quality AQ Index Pollutant
Not available.

Snow Depth

Station Depth Elevation

Earthquake Activity

City Distance Mag. Time & Date
Minimum magnitude displayed is 2.5.

Coastal Water Temperatures

Place Temperature

Nearby Weather Stations